sensor_id;sensor_type;location;lat;lon;timestamp;pressure;altitude;pressure_sealevel;temperature;humidity
14790;BME280;7486;51.010;10.366;2023-02-16T00:01:00;99250.03;;;-2.33;81.67
14790;BME280;7486;51.010;10.366;2023-02-16T00:03:27;99252.34;;;-2.43;81.87
14790;BME280;7486;51.010;10.366;2023-02-16T00:05:54;99253.00;;;-2.39;82.40
14790;BME280;7486;51.010;10.366;2023-02-16T00:08:21;99253.09;;;-2.41;82.14
14790;BME280;7486;51.010;10.366;2023-02-16T00:10:47;99257.75;;;-2.46;82.10
14790;BME280;7486;51.010;10.366;2023-02-16T00:13:23;99235.34;;;-2.47;81.82
14790;BME280;7486;51.010;10.366;2023-02-16T00:15:50;99256.47;;;-2.53;82.46
14790;BME280;7486;51.010;10.366;2023-02-16T00:18:19;99249.63;;;-2.54;82.70
14790;BME280;7486;51.010;10.366;2023-02-16T00:20:48;99249.25;;;-2.35;82.37
14790;BME280;7486;51.010;10.366;2023-02-16T00:23:15;99243.84;;;-2.45;82.99
14790;BME280;7486;51.010;10.366;2023-02-16T00:25:42;99250.09;;;-2.35;82.80
14790;BME280;7486;51.010;10.366;2023-02-16T00:28:15;99244.97;;;-2.49;83.41
14790;BME280;7486;51.010;10.366;2023-02-16T00:30:43;99248.84;;;-2.69;84.65
14790;BME280;7486;51.010;10.366;2023-02-16T00:33:17;99235.78;;;-2.67;84.80
14790;BME280;7486;51.010;10.366;2023-02-16T00:35:44;99247.34;;;-2.59;84.71
14790;BME280;7486;51.010;10.366;2023-02-16T00:38:12;99223.63;;;-2.93;85.37
14790;BME280;7486;51.010;10.366;2023-02-16T00:40:39;99194.72;;;-3.28;87.00
14790;BME280;7486;51.010;10.366;2023-02-16T00:43:25;99254.63;;;-2.78;86.60
14790;BME280;7486;51.010;10.366;2023-02-16T00:45:54;99250.94;;;-2.88;85.85
14790;BME280;7486;51.010;10.366;2023-02-16T00:48:22;99253.00;;;-3.07;86.94
14790;BME280;7486;51.010;10.366;2023-02-16T00:50:51;99253.81;;;-2.92;87.08
14790;BME280;7486;51.010;10.366;2023-02-16T00:53:18;99238.56;;;-3.11;87.89
14790;BME280;7486;51.010;10.366;2023-02-16T00:55:45;99254.72;;;-2.79;86.70
14790;BME280;7486;51.010;10.366;2023-02-16T00:58:23;99250.72;;;-2.71;86.30
14790;BME280;7486;51.010;10.366;2023-02-16T01:00:53;99253.47;;;-2.74;86.86
14790;BME280;7486;51.010;10.366;2023-02-16T01:03:26;99175.22;;;-2.93;86.00
14790;BME280;7486;51.010;10.366;2023-02-16T01:05:55;99250.31;;;-2.38;84.53
14790;BME280;7486;51.010;10.366;2023-02-16T01:08:22;99254.72;;;-2.53;84.65
14790;BME280;7486;51.010;10.366;2023-02-16T01:10:49;99231.63;;;-2.70;85.13
14790;BME280;7486;51.010;10.366;2023-02-16T01:13:17;99255.13;;;-2.59;85.45
14790;BME280;7486;51.010;10.366;2023-02-16T01:15:44;99249.19;;;-2.34;85.19
14790;BME280;7486;51.010;10.366;2023-02-16T01:18:13;99266.59;;;-2.63;85.76
14790;BME280;7486;51.010;10.366;2023-02-16T01:20:41;99255.53;;;-2.52;85.98
14790;BME280;7486;51.010;10.366;2023-02-16T01:23:08;99208.47;;;-2.73;84.97
14790;BME280;7486;51.010;10.366;2023-02-16T01:25:36;99249.66;;;-2.41;84.88
14790;BME280;7486;51.010;10.366;2023-02-16T01:28:16;99245.75;;;-2.34;84.34
14790;BME280;7486;51.010;10.366;2023-02-16T01:30:44;99238.38;;;-2.40;84.20
14790;BME280;7486;51.010;10.366;2023-02-16T01:33:10;99244.94;;;-2.62;84.87
14790;BME280;7486;51.010;10.366;2023-02-16T01:35:37;99237.03;;;-2.87;86.68
14790;BME280;7486;51.010;10.366;2023-02-16T01:38:04;99248.59;;;-2.52;85.84
14790;BME280;7486;51.010;10.366;2023-02-16T01:43:18;99246.19;;;-2.28;84.41
14790;BME280;7486;51.010;10.366;2023-02-16T01:45:50;99244.13;;;-2.23;83.67
14790;BME280;7486;51.010;10.366;2023-02-16T01:48:24;99253.75;;;-2.25;83.34
14790;BME280;7486;51.010;10.366;2023-02-16T01:56:01;99190.97;;;-2.96;86.50
14790;BME280;7486;51.010;10.366;2023-02-16T02:03:33;99145.09;;;-2.81;83.14
14790;BME280;7486;51.010;10.366;2023-02-16T02:06:00;99220.41;;;-2.43;83.59
14790;BME280;7486;51.010;10.366;2023-02-16T02:11:06;99218.59;;;-2.56;84.05
14790;BME280;7486;51.010;10.366;2023-02-16T02:13:59;99214.53;;;-2.60;84.54
14790;BME280;7486;51.010;10.366;2023-02-16T02:16:27;99204.31;;;-2.49;84.82
14790;BME280;7486;51.010;10.366;2023-02-16T02:18:54;99214.41;;;-2.31;83.62
14790;BME280;7486;51.010;10.366;2023-02-16T02:27:21;99217.19;;;-2.74;84.27
14790;BME280;7486;51.010;10.366;2023-02-16T02:35:21;99204.75;;;-2.69;84.32
14790;BME280;7486;51.010;10.366;2023-02-16T02:43:30;99190.44;;;-2.74;83.95
14790;BME280;7486;51.010;10.366;2023-02-16T02:46:06;99180.19;;;-2.90;84.18
14790;BME280;7486;51.010;10.366;2023-02-16T02:48:34;99186.03;;;-2.86;84.35
14790;BME280;7486;51.010;10.366;2023-02-16T02:51:07;99195.59;;;-2.48;84.19
14790;BME280;7486;51.010;10.366;2023-02-16T02:53:41;99196.66;;;-2.37;83.48
14790;BME280;7486;51.010;10.366;2023-02-16T02:56:11;99192.53;;;-2.27;82.73
14790;BME280;7486;51.010;10.366;2023-02-16T02:58:39;99178.03;;;-2.57;83.04
14790;BME280;7486;51.010;10.366;2023-02-16T03:01:07;99197.25;;;-2.47;82.66
14790;BME280;7486;51.010;10.366;2023-02-16T03:03:41;99187.84;;;-2.35;83.37
14790;BME280;7486;51.010;10.366;2023-02-16T03:06:23;99182.03;;;-2.78;83.63
14790;BME280;7486;51.010;10.366;2023-02-16T03:08:59;99178.25;;;-2.86;84.93
14790;BME280;7486;51.010;10.366;2023-02-16T03:11:28;99190.81;;;-3.07;86.63
14790;BME280;7486;51.010;10.366;2023-02-16T03:13:58;99185.19;;;-2.87;86.33
14790;BME280;7486;51.010;10.366;2023-02-16T03:16:30;99187.88;;;-2.62;85.45
14790;BME280;7486;51.010;10.366;2023-02-16T03:19:01;99174.34;;;-2.79;85.09
14790;BME280;7486;51.010;10.366;2023-02-16T03:21:28;99200.94;;;-2.63;83.89
14790;BME280;7486;51.010;10.366;2023-02-16T03:23:56;99141.00;;;-2.98;83.72
14790;BME280;7486;51.010;10.366;2023-02-16T03:26:25;99190.06;;;-2.56;83.98
14790;BME280;7486;51.010;10.366;2023-02-16T03:28:52;99182.13;;;-2.67;83.25
14790;BME280;7486;51.010;10.366;2023-02-16T03:31:21;99186.97;;;-2.61;83.14
14790;BME280;7486;51.010;10.366;2023-02-16T03:33:50;99183.63;;;-2.89;85.04
14790;BME280;7486;51.010;10.366;2023-02-16T03:36:17;99195.53;;;-2.60;84.61
14790;BME280;7486;51.010;10.366;2023-02-16T03:38:44;99180.09;;;-2.62;83.46
14790;BME280;7486;51.010;10.366;2023-02-16T03:41:11;99179.97;;;-2.60;83.66
14790;BME280;7486;51.010;10.366;2023-02-16T03:43:37;99155.00;;;-2.61;82.96
14790;BME280;7486;51.010;10.366;2023-02-16T03:46:04;99180.75;;;-2.46;82.69
14790;BME280;7486;51.010;10.366;2023-02-16T03:48:31;99175.28;;;-2.41;83.13
14790;BME280;7486;51.010;10.366;2023-02-16T03:50:57;99162.19;;;-2.39;82.96
14790;BME280;7486;51.010;10.366;2023-02-16T03:53:24;99141.75;;;-2.44;82.20
14790;BME280;7486;51.010;10.366;2023-02-16T03:55:51;99174.63;;;-2.57;82.93
14790;BME280;7486;51.010;10.366;2023-02-16T03:58:20;99174.34;;;-2.67;83.55
14790;BME280;7486;51.010;10.366;2023-02-16T04:00:47;99159.56;;;-2.65;83.72
14790;BME280;7486;51.010;10.366;2023-02-16T04:03:14;99147.34;;;-2.50;82.87
14790;BME280;7486;51.010;10.366;2023-02-16T04:05:41;99173.25;;;-2.63;82.49
14790;BME280;7486;51.010;10.366;2023-02-16T04:08:08;99176.09;;;-2.80;83.16
14790;BME280;7486;51.010;10.366;2023-02-16T04:10:36;99159.50;;;-3.04;84.20
14790;BME280;7486;51.010;10.366;2023-02-16T04:13:03;99166.59;;;-2.67;84.25
14790;BME280;7486;51.010;10.366;2023-02-16T04:15:30;99163.00;;;-2.52;83.03
14790;BME280;7486;51.010;10.366;2023-02-16T04:17:57;99172.25;;;-2.48;82.56
14790;BME280;7486;51.010;10.366;2023-02-16T04:20:27;99167.75;;;-2.58;82.11
14790;BME280;7486;51.010;10.366;2023-02-16T04:22:55;99130.38;;;-2.81;82.09
14790;BME280;7486;51.010;10.366;2023-02-16T04:25:21;99175.84;;;-2.63;81.99
14790;BME280;7486;51.010;10.366;2023-02-16T04:27:49;99152.47;;;-2.75;82.34
14790;BME280;7486;51.010;10.366;2023-02-16T04:30:17;99175.53;;;-2.71;82.65
14790;BME280;7486;51.010;10.366;2023-02-16T04:32:45;99173.66;;;-2.56;82.75
14790;BME280;7486;51.010;10.366;2023-02-16T04:35:11;99177.22;;;-2.57;81.63
14790;BME280;7486;51.010;10.366;2023-02-16T04:37:38;99161.03;;;-3.14;82.79
14790;BME280;7486;51.010;10.366;2023-02-16T04:40:06;99179.97;;;-3.00;83.94
14790;BME280;7486;51.010;10.366;2023-02-16T04:42:34;99176.66;;;-3.02;84.11
14790;BME280;7486;51.010;10.366;2023-02-16T04:45:00;99155.56;;;-2.83;84.03
14790;BME280;7486;51.010;10.366;2023-02-16T04:47:27;99178.63;;;-2.66;82.58
14790;BME280;7486;51.010;10.366;2023-02-16T04:49:54;99178.22;;;-2.99;83.57
14790;BME280;7486;51.010;10.366;2023-02-16T04:52:20;99153.19;;;-3.27;83.80
14790;BME280;7486;51.010;10.366;2023-02-16T04:54:47;99128.25;;;-3.42;84.18
14790;BME280;7486;51.010;10.366;2023-02-16T04:57:14;99187.78;;;-3.14;85.07
14790;BME280;7486;51.010;10.366;2023-02-16T04:59:42;99185.31;;;-3.29;85.41
14790;BME280;7486;51.010;10.366;2023-02-16T05:02:08;99185.47;;;-3.18;85.19
14790;BME280;7486;51.010;10.366;2023-02-16T05:04:35;99170.88;;;-3.33;86.01
14790;BME280;7486;51.010;10.366;2023-02-16T05:07:02;99176.75;;;-3.17;85.49
14790;BME280;7486;51.010;10.366;2023-02-16T05:09:29;99181.22;;;-3.19;85.59
14790;BME280;7486;51.010;10.366;2023-02-16T05:11:56;99195.03;;;-2.92;85.31
14790;BME280;7486;51.010;10.366;2023-02-16T05:14:28;99182.47;;;-2.98;84.53
14790;BME280;7486;51.010;10.366;2023-02-16T05:16:55;99187.75;;;-3.00;84.96
14790;BME280;7486;51.010;10.366;2023-02-16T05:19:21;99178.75;;;-3.08;84.97
14790;BME280;7486;51.010;10.366;2023-02-16T05:21:48;99184.09;;;-2.97;85.31
14790;BME280;7486;51.010;10.366;2023-02-16T05:24:15;99171.22;;;-2.84;85.58
14790;BME280;7486;51.010;10.366;2023-02-16T05:26:42;99173.34;;;-2.91;84.92
14790;BME280;7486;51.010;10.366;2023-02-16T05:29:08;99180.41;;;-2.93;84.77
14790;BME280;7486;51.010;10.366;2023-02-16T05:31:36;99170.31;;;-3.24;86.92
14790;BME280;7486;51.010;10.366;2023-02-16T05:34:03;99186.75;;;-3.11;86.88
14790;BME280;7486;51.010;10.366;2023-02-16T05:36:30;99183.63;;;-3.16;87.55
14790;BME280;7486;51.010;10.366;2023-02-16T05:38:56;99187.13;;;-3.17;86.85
14790;BME280;7486;51.010;10.366;2023-02-16T05:41:23;99147.97;;;-3.39;87.85
14790;BME280;7486;51.010;10.366;2023-02-16T05:43:51;99173.25;;;-3.16;86.74
14790;BME280;7486;51.010;10.366;2023-02-16T05:46:19;99195.94;;;-2.93;86.68
14790;BME280;7486;51.010;10.366;2023-02-16T05:48:47;99186.00;;;-3.13;87.24
14790;BME280;7486;51.010;10.366;2023-02-16T05:51:14;99188.22;;;-3.07;86.95
14790;BME280;7486;51.010;10.366;2023-02-16T05:53:40;99179.28;;;-3.16;87.04
14790;BME280;7486;51.010;10.366;2023-02-16T05:56:08;99127.94;;;-3.23;86.90
14790;BME280;7486;51.010;10.366;2023-02-16T05:58:35;99175.53;;;-2.71;86.06
14790;BME280;7486;51.010;10.366;2023-02-16T06:01:02;99175.53;;;-2.58;84.88
14790;BME280;7486;51.010;10.366;2023-02-16T06:03:29;99112.81;;;-2.90;84.63
14790;BME280;7486;51.010;10.366;2023-02-16T06:05:59;99167.91;;;-2.34;84.22
14790;BME280;7486;51.010;10.366;2023-02-16T06:08:26;99165.53;;;-2.25;83.29
14790;BME280;7486;51.010;10.366;2023-02-16T06:10:54;99109.31;;;-2.64;82.47
14790;BME280;7486;51.010;10.366;2023-02-16T06:13:22;99171.13;;;-2.31;82.58
14790;BME280;7486;51.010;10.366;2023-02-16T06:15:54;99172.66;;;-2.54;82.58
14790;BME280;7486;51.010;10.366;2023-02-16T06:18:23;99142.88;;;-3.14;84.56
14790;BME280;7486;51.010;10.366;2023-02-16T06:20:50;99177.66;;;-3.04;85.87
14790;BME280;7486;51.010;10.366;2023-02-16T06:23:17;99175.25;;;-2.80;86.00
14790;BME280;7486;51.010;10.366;2023-02-16T06:25:47;99175.13;;;-2.65;85.08
14790;BME280;7486;51.010;10.366;2023-02-16T06:28:14;99168.06;;;-2.63;84.40
14790;BME280;7486;51.010;10.366;2023-02-16T06:30:41;99168.66;;;-2.72;84.27
14790;BME280;7486;51.010;10.366;2023-02-16T06:33:08;99144.78;;;-3.04;85.54
14790;BME280;7486;51.010;10.366;2023-02-16T06:35:34;99168.06;;;-2.89;85.24
14790;BME280;7486;51.010;10.366;2023-02-16T06:38:01;99173.25;;;-2.89;85.31
14790;BME280;7486;51.010;10.366;2023-02-16T06:40:28;99170.66;;;-3.16;86.92
14790;BME280;7486;51.010;10.366;2023-02-16T06:42:55;99173.53;;;-2.94;86.81
14790;BME280;7486;51.010;10.366;2023-02-16T06:45:21;99155.94;;;-2.89;86.23
14790;BME280;7486;51.010;10.366;2023-02-16T06:47:48;99164.56;;;-2.88;86.25
14790;BME280;7486;51.010;10.366;2023-02-16T06:50:15;99169.16;;;-3.06;86.90
14790;BME280;7486;51.010;10.366;2023-02-16T06:52:41;99152.16;;;-2.98;86.96
14790;BME280;7486;51.010;10.366;2023-02-16T06:55:08;99159.06;;;-2.84;87.86
14790;BME280;7486;51.010;10.366;2023-02-16T06:57:35;99158.50;;;-2.75;86.82
14790;BME280;7486;51.010;10.366;2023-02-16T07:00:03;99155.69;;;-2.72;86.88
14790;BME280;7486;51.010;10.366;2023-02-16T07:02:30;99149.38;;;-2.68;86.47
14790;BME280;7486;51.010;10.366;2023-02-16T07:04:57;99145.31;;;-2.72;86.33
14790;BME280;7486;51.010;10.366;2023-02-16T07:07:23;99162.19;;;-2.39;86.30
14790;BME280;7486;51.010;10.366;2023-02-16T07:09:50;99162.00;;;-2.36;85.50
14790;BME280;7486;51.010;10.366;2023-02-16T07:12:17;99162.94;;;-2.37;85.54
14790;BME280;7486;51.010;10.366;2023-02-16T07:14:43;99173.72;;;-2.31;85.52
14790;BME280;7486;51.010;10.366;2023-02-16T07:17:10;99185.72;;;-2.42;85.63
14790;BME280;7486;51.010;10.366;2023-02-16T07:19:37;99181.78;;;-2.61;86.62
14790;BME280;7486;51.010;10.366;2023-02-16T07:22:03;99185.22;;;-3.01;88.52
14790;BME280;7486;51.010;10.366;2023-02-16T07:24:30;99197.31;;;-2.87;89.38
14790;BME280;7486;51.010;10.366;2023-02-16T07:26:57;99176.50;;;-2.86;89.16
14790;BME280;7486;51.010;10.366;2023-02-16T07:29:23;99182.75;;;-2.76;88.70
14790;BME280;7486;51.010;10.366;2023-02-16T07:31:50;99204.78;;;-2.56;89.47
14790;BME280;7486;51.010;10.366;2023-02-16T07:34:17;99159.63;;;-2.66;88.33
14790;BME280;7486;51.010;10.366;2023-02-16T07:36:46;99208.09;;;-2.27;87.78
14790;BME280;7486;51.010;10.366;2023-02-16T07:39:13;99213.56;;;-2.32;87.71
14790;BME280;7486;51.010;10.366;2023-02-16T07:41:39;99201.44;;;-2.19;87.35
14790;BME280;7486;51.010;10.366;2023-02-16T07:44:07;99188.47;;;-2.19;86.93
14790;BME280;7486;51.010;10.366;2023-02-16T07:46:33;99189.78;;;-2.38;86.95
14790;BME280;7486;51.010;10.366;2023-02-16T07:49:00;99208.50;;;-2.21;87.61
14790;BME280;7486;51.010;10.366;2023-02-16T07:51:29;99198.66;;;-2.16;87.17
14790;BME280;7486;51.010;10.366;2023-02-16T07:53:57;99193.44;;;-2.16;87.28
14790;BME280;7486;51.010;10.366;2023-02-16T07:56:27;99205.97;;;-1.83;87.51
14790;BME280;7486;51.010;10.366;2023-02-16T07:58:55;99197.63;;;-1.63;86.32
14790;BME280;7486;51.010;10.366;2023-02-16T08:01:22;99204.78;;;-1.54;84.87
14790;BME280;7486;51.010;10.366;2023-02-16T08:03:50;99188.28;;;-1.53;84.68
14790;BME280;7486;51.010;10.366;2023-02-16T08:06:17;99204.16;;;-1.45;84.43
14790;BME280;7486;51.010;10.366;2023-02-16T08:08:45;99202.94;;;-1.52;84.22
14790;BME280;7486;51.010;10.366;2023-02-16T08:11:17;99203.91;;;-1.29;84.31
14790;BME280;7486;51.010;10.366;2023-02-16T08:13:45;99217.03;;;-1.30;84.47
14790;BME280;7486;51.010;10.366;2023-02-16T08:16:18;99219.38;;;-1.15;83.68
14790;BME280;7486;51.010;10.366;2023-02-16T08:18:46;99188.19;;;-1.15;84.30
14790;BME280;7486;51.010;10.366;2023-02-16T08:21:19;99221.34;;;-0.82;83.29
14790;BME280;7486;51.010;10.366;2023-02-16T08:23:55;99217.94;;;-0.59;82.61
14790;BME280;7486;51.010;10.366;2023-02-16T08:26:23;99208.56;;;-0.38;81.91
14790;BME280;7486;51.010;10.366;2023-02-16T08:28:51;99202.19;;;-0.33;80.30
14790;BME280;7486;51.010;10.366;2023-02-16T08:31:20;99197.84;;;-0.57;79.94
14790;BME280;7486;51.010;10.366;2023-02-16T08:33:48;99195.84;;;-0.53;80.34
14790;BME280;7486;51.010;10.366;2023-02-16T08:36:23;99201.16;;;-0.31;80.25
14790;BME280;7486;51.010;10.366;2023-02-16T08:38:51;99201.94;;;-0.30;80.18
14790;BME280;7486;51.010;10.366;2023-02-16T08:41:20;99197.44;;;-0.40;79.77
14790;BME280;7486;51.010;10.366;2023-02-16T08:43:48;99197.72;;;-0.20;79.51
14790;BME280;7486;51.010;10.366;2023-02-16T08:46:15;99192.50;;;-0.20;79.28
14790;BME280;7486;51.010;10.366;2023-02-16T08:48:42;99197.66;;;-0.43;79.15
14790;BME280;7486;51.010;10.366;2023-02-16T08:51:17;99205.63;;;-0.33;79.92
14790;BME280;7486;51.010;10.366;2023-02-16T08:53:45;99180.94;;;-0.51;80.84
14790;BME280;7486;51.010;10.366;2023-02-16T08:56:13;99205.25;;;-0.40;80.13
14790;BME280;7486;51.010;10.366;2023-02-16T08:58:40;99207.91;;;-0.28;80.26
14790;BME280;7486;51.010;10.366;2023-02-16T09:01:07;99205.56;;;-0.09;79.80
14790;BME280;7486;51.010;10.366;2023-02-16T09:03:35;99216.44;;;-0.15;80.51
14790;BME280;7486;51.010;10.366;2023-02-16T09:06:04;99209.38;;;-0.02;79.54
14790;BME280;7486;51.010;10.366;2023-02-16T09:08:32;99210.25;;;0.09;79.33
14790;BME280;7486;51.010;10.366;2023-02-16T09:11:02;99211.94;;;0.33;79.05
14790;BME280;7486;51.010;10.366;2023-02-16T09:13:32;99210.38;;;0.41;77.97
14790;BME280;7486;51.010;10.366;2023-02-16T09:16:09;99205.41;;;0.38;77.79
14790;BME280;7486;51.010;10.366;2023-02-16T09:18:37;99201.38;;;0.23;77.67
14790;BME280;7486;51.010;10.366;2023-02-16T09:21:06;99160.16;;;0.06;77.62
14790;BME280;7486;51.010;10.366;2023-02-16T09:23:33;99200.69;;;0.43;76.92
14790;BME280;7486;51.010;10.366;2023-02-16T09:26:00;99185.03;;;0.10;77.07
14790;BME280;7486;51.010;10.366;2023-02-16T09:28:28;99202.09;;;0.58;77.21
14790;BME280;7486;51.010;10.366;2023-02-16T09:30:55;99204.59;;;0.60;77.20
14790;BME280;7486;51.010;10.366;2023-02-16T09:33:22;99205.91;;;0.88;76.37
14790;BME280;7486;51.010;10.366;2023-02-16T09:35:48;99202.56;;;0.97;76.85
14790;BME280;7486;51.010;10.366;2023-02-16T09:38:15;99200.22;;;0.94;75.88
14790;BME280;7486;51.010;10.366;2023-02-16T09:40:42;99196.66;;;0.95;75.68
14790;BME280;7486;51.010;10.366;2023-02-16T09:45:57;99183.34;;;0.76;76.75
14790;BME280;7486;51.010;10.366;2023-02-16T09:48:40;99191.78;;;0.90;74.82
14790;BME280;7486;51.010;10.366;2023-02-16T09:51:14;99201.84;;;1.06;75.98
14790;BME280;7486;51.010;10.366;2023-02-16T10:07:58;99175.72;;;1.49;73.51
14790;BME280;7486;51.010;10.366;2023-02-16T10:13:07;99208.56;;;1.83;72.62
14790;BME280;7486;51.010;10.366;2023-02-16T10:15:39;99203.59;;;2.01;71.82
14790;BME280;7486;51.010;10.366;2023-02-16T10:18:16;99201.25;;;1.98;71.61
14790;BME280;7486;51.010;10.366;2023-02-16T10:20:45;99192.69;;;1.96;71.32
14790;BME280;7486;51.010;10.366;2023-02-16T10:24:02;99190.03;;;2.07;71.08
14790;BME280;7486;51.010;10.366;2023-02-16T10:29:04;99199.69;;;1.75;72.04
14790;BME280;7486;51.010;10.366;2023-02-16T10:31:42;99175.28;;;2.06;72.22
14790;BME280;7486;51.010;10.366;2023-02-16T10:43:17;99180.78;;;1.82;72.53
14790;BME280;7486;51.010;10.366;2023-02-16T10:48:19;99185.91;;;2.35;71.31
14790;BME280;7486;51.010;10.366;2023-02-16T10:51:06;99184.41;;;2.32;70.61
14790;BME280;7486;51.010;10.366;2023-02-16T10:53:39;99181.06;;;2.30;70.48
14790;BME280;7486;51.010;10.366;2023-02-16T10:58:49;99177.84;;;2.17;70.30
14790;BME280;7486;51.010;10.366;2023-02-16T11:01:22;99132.19;;;1.91;70.31
14790;BME280;7486;51.010;10.366;2023-02-16T11:03:54;99175.22;;;2.17;70.45
14790;BME280;7486;51.010;10.366;2023-02-16T11:06:22;99171.72;;;2.28;69.36
14790;BME280;7486;51.010;10.366;2023-02-16T11:08:54;99170.72;;;2.19;69.27
14790;BME280;7486;51.010;10.366;2023-02-16T11:11:36;99174.97;;;2.20;69.92
14790;BME280;7486;51.010;10.366;2023-02-16T11:14:06;99163.75;;;2.29;69.66
14790;BME280;7486;51.010;10.366;2023-02-16T11:16:34;99161.38;;;2.26;69.83
14790;BME280;7486;51.010;10.366;2023-02-16T11:19:06;99169.47;;;2.23;71.09
14790;BME280;7486;51.010;10.366;2023-02-16T11:24:37;99140.47;;;2.26;70.28
14790;BME280;7486;51.010;10.366;2023-02-16T11:29:31;99144.34;;;2.72;69.38
14790;BME280;7486;51.010;10.366;2023-02-16T11:31:59;99152.72;;;2.65;70.23
14790;BME280;7486;51.010;10.366;2023-02-16T11:34:35;99148.25;;;2.96;68.92
14790;BME280;7486;51.010;10.366;2023-02-16T11:37:32;99141.94;;;2.99;67.12
14790;BME280;7486;51.010;10.366;2023-02-16T11:40:27;99138.72;;;2.76;68.95
14790;BME280;7486;51.010;10.366;2023-02-16T11:42:53;99139.56;;;2.77;67.91
14790;BME280;7486;51.010;10.366;2023-02-16T11:45:33;99130.69;;;2.58;68.33
14790;BME280;7486;51.010;10.366;2023-02-16T11:48:04;99145.75;;;2.76;69.89
14790;BME280;7486;51.010;10.366;2023-02-16T11:50:33;99148.53;;;2.93;69.47
14790;BME280;7486;51.010;10.366;2023-02-16T11:55:44;99139.53;;;3.45;67.36
14790;BME280;7486;51.010;10.366;2023-02-16T12:01:04;99135.13;;;3.46;66.53
14790;BME280;7486;51.010;10.366;2023-02-16T12:06:27;99128.03;;;3.08;67.56
14790;BME280;7486;51.010;10.366;2023-02-16T12:09:20;99131.38;;;3.29;67.39
14790;BME280;7486;51.010;10.366;2023-02-16T12:11:58;99121.59;;;3.31;67.42
14790;BME280;7486;51.010;10.366;2023-02-16T12:14:33;99114.81;;;3.19;67.64
14790;BME280;7486;51.010;10.366;2023-02-16T12:19:48;99113.06;;;3.39;67.61
14790;BME280;7486;51.010;10.366;2023-02-16T12:22:36;99118.84;;;3.42;67.67
14790;BME280;7486;51.010;10.366;2023-02-16T12:25:19;99115.78;;;3.66;67.31
14790;BME280;7486;51.010;10.366;2023-02-16T12:33:14;99114.84;;;3.48;66.55
14790;BME280;7486;51.010;10.366;2023-02-16T12:38:35;99104.34;;;3.57;66.19
14790;BME280;7486;51.010;10.366;2023-02-16T12:43:41;99103.13;;;3.42;66.18
14790;BME280;7486;51.010;10.366;2023-02-16T12:46:25;99106.00;;;3.58;66.89
14790;BME280;7486;51.010;10.366;2023-02-16T12:51:25;99105.16;;;3.68;66.09
14790;BME280;7486;51.010;10.366;2023-02-16T12:54:16;99096.16;;;3.89;65.45
14790;BME280;7486;51.010;10.366;2023-02-16T12:56:58;99091.59;;;3.91;65.48
14790;BME280;7486;51.010;10.366;2023-02-16T12:59:42;99101.25;;;4.00;65.68
14790;BME280;7486;51.010;10.366;2023-02-16T13:02:25;99068.91;;;3.63;66.38
14790;BME280;7486;51.010;10.366;2023-02-16T13:07:56;99088.78;;;4.39;65.43
14790;BME280;7486;51.010;10.366;2023-02-16T13:11:03;99093.25;;;4.29;65.62
14790;BME280;7486;51.010;10.366;2023-02-16T13:13:35;99090.53;;;4.21;65.08
14790;BME280;7486;51.010;10.366;2023-02-16T13:18:54;99085.66;;;3.89;64.84
14790;BME280;7486;51.010;10.366;2023-02-16T13:27:54;99080.94;;;3.56;65.97
14790;BME280;7486;51.010;10.366;2023-02-16T13:30:40;99075.75;;;3.83;65.62
14790;BME280;7486;51.010;10.366;2023-02-16T13:33:22;99074.91;;;3.92;63.67
14790;BME280;7486;51.010;10.366;2023-02-16T13:44:11;99065.22;;;4.02;64.46
14790;BME280;7486;51.010;10.366;2023-02-16T13:46:46;99055.50;;;4.12;64.33
14790;BME280;7486;51.010;10.366;2023-02-16T13:49:35;99074.28;;;4.08;64.04
14790;BME280;7486;51.010;10.366;2023-02-16T13:52:04;99075.59;;;3.85;65.88
14790;BME280;7486;51.010;10.366;2023-02-16T13:54:37;99069.19;;;4.06;64.54
14790;BME280;7486;51.010;10.366;2023-02-16T13:57:10;99059.28;;;4.00;65.37
14790;BME280;7486;51.010;10.366;2023-02-16T14:02:12;99066.84;;;3.57;66.49
14790;BME280;7486;51.010;10.366;2023-02-16T14:09:49;99060.97;;;3.45;67.04
14790;BME280;7486;51.010;10.366;2023-02-16T14:12:18;99048.78;;;3.54;67.27
14790;BME280;7486;51.010;10.366;2023-02-16T14:14:55;99055.00;;;3.43;67.17
14790;BME280;7486;51.010;10.366;2023-02-16T14:17:31;99045.78;;;3.30;67.14
14790;BME280;7486;51.010;10.366;2023-02-16T14:27:51;99017.69;;;3.41;68.04
14790;BME280;7486;51.010;10.366;2023-02-16T14:35:47;99009.38;;;3.55;67.07
14790;BME280;7486;51.010;10.366;2023-02-16T14:38:36;99014.22;;;3.41;67.28
14790;BME280;7486;51.010;10.366;2023-02-16T14:41:34;99020.38;;;3.69;67.41
14790;BME280;7486;51.010;10.366;2023-02-16T14:46:55;99009.88;;;3.69;67.04
14790;BME280;7486;51.010;10.366;2023-02-16T15:01:14;99015.13;;;3.69;67.66
14790;BME280;7486;51.010;10.366;2023-02-16T15:03:46;99014.28;;;3.68;67.94
14790;BME280;7486;51.010;10.366;2023-02-16T15:08:59;99019.91;;;3.83;66.20
14790;BME280;7486;51.010;10.366;2023-02-16T15:11:46;99016.28;;;3.84;67.13
14790;BME280;7486;51.010;10.366;2023-02-16T15:14:14;99030.09;;;3.86;67.10
14790;BME280;7486;51.010;10.366;2023-02-16T15:16:41;99019.50;;;3.78;67.11
14790;BME280;7486;51.010;10.366;2023-02-16T15:19:18;99024.81;;;3.58;66.69
14790;BME280;7486;51.010;10.366;2023-02-16T15:22:27;99019.53;;;3.68;67.31
14790;BME280;7486;51.010;10.366;2023-02-16T15:24:54;99004.34;;;3.72;66.57
14790;BME280;7486;51.010;10.366;2023-02-16T15:27:21;99013.91;;;3.53;67.72
14790;BME280;7486;51.010;10.366;2023-02-16T15:30:20;99020.88;;;3.82;66.62
14790;BME280;7486;51.010;10.366;2023-02-16T15:32:50;99024.06;;;3.76;66.99
14790;BME280;7486;51.010;10.366;2023-02-16T15:35:31;99011.88;;;3.84;66.52
14790;BME280;7486;51.010;10.366;2023-02-16T15:38:06;99009.31;;;3.75;66.72
14790;BME280;7486;51.010;10.366;2023-02-16T15:40:34;99008.34;;;3.76;67.48
14790;BME280;7486;51.010;10.366;2023-02-16T15:45:50;98966.22;;;3.59;67.05
14790;BME280;7486;51.010;10.366;2023-02-16T15:48:33;98989.41;;;3.82;67.30
14790;BME280;7486;51.010;10.366;2023-02-16T15:53:49;98987.47;;;3.84;66.41
14790;BME280;7486;51.010;10.366;2023-02-16T15:58:49;98984.00;;;3.46;67.59
14790;BME280;7486;51.010;10.366;2023-02-16T16:01:29;98979.16;;;3.61;67.30
14790;BME280;7486;51.010;10.366;2023-02-16T16:04:00;98985.88;;;3.73;67.12
14790;BME280;7486;51.010;10.366;2023-02-16T16:06:32;98973.03;;;3.33;68.15
14790;BME280;7486;51.010;10.366;2023-02-16T16:09:00;98954.31;;;3.28;68.22